sensor_id;sensor_type;location;lat;lon;timestamp;P1;durP1;ratioP1;P2;durP2;ratioP2
20170;SDS011;10245;51.344;6.620;2024-03-08T00:01:57;25.42;;;17.92;;
20170;SDS011;10245;51.344;6.620;2024-03-08T00:04:20;24.02;;;17.67;;
20170;SDS011;10245;51.344;6.620;2024-03-08T00:06:44;25.52;;;17.85;;
20170;SDS011;10245;51.344;6.620;2024-03-08T00:09:07;25.42;;;18.15;;
20170;SDS011;10245;51.344;6.620;2024-03-08T00:11:31;25.33;;;17.15;;
20170;SDS011;10245;51.344;6.620;2024-03-08T00:13:56;29.50;;;19.77;;
20170;SDS011;10245;51.344;6.620;2024-03-08T00:16:19;24.50;;;17.88;;
20170;SDS011;10245;51.344;6.620;2024-03-08T00:18:44;24.05;;;17.13;;
20170;SDS011;10245;51.344;6.620;2024-03-08T00:21:09;24.45;;;18.20;;
20170;SDS011;10245;51.344;6.620;2024-03-08T00:23:33;27.00;;;17.92;;
20170;SDS011;10245;51.344;6.620;2024-03-08T00:25:56;27.30;;;18.73;;
20170;SDS011;10245;51.344;6.620;2024-03-08T00:28:20;24.27;;;17.63;;
20170;SDS011;10245;51.344;6.620;2024-03-08T00:30:47;27.02;;;19.30;;
20170;SDS011;10245;51.344;6.620;2024-03-08T00:33:11;23.52;;;18.20;;
20170;SDS011;10245;51.344;6.620;2024-03-08T00:35:35;26.33;;;17.38;;
20170;SDS011;10245;51.344;6.620;2024-03-08T00:37:58;27.20;;;19.67;;
20170;SDS011;10245;51.344;6.620;2024-03-08T00:40:22;28.65;;;19.80;;
20170;SDS011;10245;51.344;6.620;2024-03-08T00:42:45;27.63;;;18.73;;
20170;SDS011;10245;51.344;6.620;2024-03-08T00:45:09;27.67;;;19.50;;
20170;SDS011;10245;51.344;6.620;2024-03-08T00:47:35;26.48;;;19.77;;
20170;SDS011;10245;51.344;6.620;2024-03-08T00:49:59;25.75;;;18.88;;
20170;SDS011;10245;51.344;6.620;2024-03-08T00:52:25;28.20;;;19.67;;
20170;SDS011;10245;51.344;6.620;2024-03-08T00:54:48;29.90;;;20.67;;
20170;SDS011;10245;51.344;6.620;2024-03-08T00:57:11;30.13;;;19.88;;
20170;SDS011;10245;51.344;6.620;2024-03-08T00:59:37;32.83;;;20.00;;
20170;SDS011;10245;51.344;6.620;2024-03-08T01:02:01;28.80;;;20.40;;
20170;SDS011;10245;51.344;6.620;2024-03-08T01:04:25;29.42;;;20.88;;
20170;SDS011;10245;51.344;6.620;2024-03-08T01:06:51;31.85;;;21.00;;
20170;SDS011;10245;51.344;6.620;2024-03-08T01:09:14;28.90;;;21.10;;
20170;SDS011;10245;51.344;6.620;2024-03-08T01:11:40;27.40;;;18.92;;
20170;SDS011;10245;51.344;6.620;2024-03-08T01:14:03;27.98;;;19.55;;
20170;SDS011;10245;51.344;6.620;2024-03-08T01:16:26;28.05;;;19.83;;
20170;SDS011;10245;51.344;6.620;2024-03-08T01:18:50;30.17;;;20.23;;
20170;SDS011;10245;51.344;6.620;2024-03-08T01:21:14;27.63;;;19.85;;
20170;SDS011;10245;51.344;6.620;2024-03-08T01:23:38;29.10;;;19.15;;
20170;SDS011;10245;51.344;6.620;2024-03-08T01:26:01;27.63;;;19.85;;
20170;SDS011;10245;51.344;6.620;2024-03-08T01:28:25;29.60;;;19.33;;
20170;SDS011;10245;51.344;6.620;2024-03-08T01:30:49;27.85;;;20.33;;
20170;SDS011;10245;51.344;6.620;2024-03-08T01:33:16;27.20;;;19.52;;
20170;SDS011;10245;51.344;6.620;2024-03-08T01:35:44;28.38;;;20.15;;
20170;SDS011;10245;51.344;6.620;2024-03-08T01:38:08;29.48;;;21.38;;
20170;SDS011;10245;51.344;6.620;2024-03-08T01:40:33;31.42;;;22.27;;
20170;SDS011;10245;51.344;6.620;2024-03-08T01:42:57;29.27;;;20.42;;
20170;SDS011;10245;51.344;6.620;2024-03-08T01:45:40;29.48;;;21.52;;
20170;SDS011;10245;51.344;6.620;2024-03-08T01:48:03;29.48;;;21.83;;
20170;SDS011;10245;51.344;6.620;2024-03-08T01:50:27;30.30;;;20.83;;
20170;SDS011;10245;51.344;6.620;2024-03-08T01:52:51;28.70;;;20.48;;
20170;SDS011;10245;51.344;6.620;2024-03-08T01:55:18;30.60;;;20.83;;
20170;SDS011;10245;51.344;6.620;2024-03-08T01:57:42;28.30;;;20.08;;
20170;SDS011;10245;51.344;6.620;2024-03-08T02:00:06;30.92;;;20.65;;
20170;SDS011;10245;51.344;6.620;2024-03-08T02:02:33;29.38;;;20.80;;
20170;SDS011;10245;51.344;6.620;2024-03-08T02:04:56;30.50;;;21.38;;
20170;SDS011;10245;51.344;6.620;2024-03-08T02:07:20;30.58;;;20.75;;
20170;SDS011;10245;51.344;6.620;2024-03-08T02:09:44;29.77;;;20.83;;
20170;SDS011;10245;51.344;6.620;2024-03-08T02:12:09;32.85;;;21.92;;
20170;SDS011;10245;51.344;6.620;2024-03-08T02:14:34;29.60;;;21.42;;
20170;SDS011;10245;51.344;6.620;2024-03-08T02:17:00;32.75;;;22.00;;
20170;SDS011;10245;51.344;6.620;2024-03-08T02:19:23;27.17;;;19.95;;
20170;SDS011;10245;51.344;6.620;2024-03-08T02:21:48;30.23;;;20.73;;
20170;SDS011;10245;51.344;6.620;2024-03-08T02:24:11;30.23;;;21.38;;
20170;SDS011;10245;51.344;6.620;2024-03-08T02:26:34;28.38;;;20.73;;
20170;SDS011;10245;51.344;6.620;2024-03-08T02:28:59;26.30;;;19.45;;
20170;SDS011;10245;51.344;6.620;2024-03-08T02:31:22;31.00;;;20.70;;
20170;SDS011;10245;51.344;6.620;2024-03-08T02:33:46;30.45;;;20.80;;
20170;SDS011;10245;51.344;6.620;2024-03-08T02:36:10;31.38;;;20.42;;
20170;SDS011;10245;51.344;6.620;2024-03-08T02:38:35;29.38;;;21.10;;
20170;SDS011;10245;51.344;6.620;2024-03-08T02:40:59;31.60;;;21.70;;
20170;SDS011;10245;51.344;6.620;2024-03-08T02:43:22;30.15;;;21.42;;
20170;SDS011;10245;51.344;6.620;2024-03-08T02:45:46;27.95;;;20.35;;
20170;SDS011;10245;51.344;6.620;2024-03-08T02:48:11;31.10;;;21.33;;
20170;SDS011;10245;51.344;6.620;2024-03-08T02:50:35;30.73;;;22.15;;
20170;SDS011;10245;51.344;6.620;2024-03-08T02:52:59;29.92;;;20.25;;
20170;SDS011;10245;51.344;6.620;2024-03-08T02:55:23;32.35;;;21.65;;
20170;SDS011;10245;51.344;6.620;2024-03-08T02:57:47;28.80;;;20.02;;
20170;SDS011;10245;51.344;6.620;2024-03-08T03:00:10;30.02;;;19.88;;
20170;SDS011;10245;51.344;6.620;2024-03-08T03:02:35;31.38;;;21.88;;
20170;SDS011;10245;51.344;6.620;2024-03-08T03:04:59;28.55;;;20.60;;
20170;SDS011;10245;51.344;6.620;2024-03-08T03:07:26;29.17;;;21.05;;
20170;SDS011;10245;51.344;6.620;2024-03-08T03:09:50;28.20;;;21.10;;
20170;SDS011;10245;51.344;6.620;2024-03-08T03:12:15;31.00;;;21.63;;
20170;SDS011;10245;51.344;6.620;2024-03-08T03:14:39;34.38;;;21.83;;
20170;SDS011;10245;51.344;6.620;2024-03-08T03:17:02;33.72;;;21.60;;
20170;SDS011;10245;51.344;6.620;2024-03-08T03:19:26;30.83;;;22.08;;
20170;SDS011;10245;51.344;6.620;2024-03-08T03:21:51;31.38;;;22.75;;
20170;SDS011;10245;51.344;6.620;2024-03-08T03:24:14;34.75;;;22.73;;
20170;SDS011;10245;51.344;6.620;2024-03-08T03:26:38;31.63;;;21.27;;
20170;SDS011;10245;51.344;6.620;2024-03-08T03:29:04;31.52;;;23.23;;
20170;SDS011;10245;51.344;6.620;2024-03-08T03:31:29;33.83;;;22.85;;
20170;SDS011;10245;51.344;6.620;2024-03-08T03:33:53;32.38;;;22.95;;
20170;SDS011;10245;51.344;6.620;2024-03-08T03:36:22;34.00;;;23.40;;
20170;SDS011;10245;51.344;6.620;2024-03-08T03:38:46;35.95;;;24.40;;
20170;SDS011;10245;51.344;6.620;2024-03-08T03:41:10;31.67;;;22.60;;
20170;SDS011;10245;51.344;6.620;2024-03-08T03:43:35;33.30;;;23.25;;
20170;SDS011;10245;51.344;6.620;2024-03-08T03:46:01;34.35;;;24.20;;
20170;SDS011;10245;51.344;6.620;2024-03-08T03:48:25;35.67;;;23.50;;
20170;SDS011;10245;51.344;6.620;2024-03-08T03:50:49;35.53;;;23.30;;
20170;SDS011;10245;51.344;6.620;2024-03-08T03:53:12;33.72;;;23.15;;
20170;SDS011;10245;51.344;6.620;2024-03-08T03:55:36;34.97;;;23.85;;
20170;SDS011;10245;51.344;6.620;2024-03-08T03:58:02;35.20;;;23.85;;
20170;SDS011;10245;51.344;6.620;2024-03-08T04:00:26;31.23;;;22.80;;
20170;SDS011;10245;51.344;6.620;2024-03-08T04:02:52;34.70;;;24.50;;
20170;SDS011;10245;51.344;6.620;2024-03-08T04:05:16;34.28;;;24.48;;
20170;SDS011;10245;51.344;6.620;2024-03-08T04:07:39;32.78;;;23.27;;
20170;SDS011;10245;51.344;6.620;2024-03-08T04:10:03;35.70;;;23.33;;
20170;SDS011;10245;51.344;6.620;2024-03-08T04:12:27;29.60;;;22.30;;
20170;SDS011;10245;51.344;6.620;2024-03-08T04:14:52;34.75;;;25.40;;
20170;SDS011;10245;51.344;6.620;2024-03-08T04:17:16;35.60;;;23.58;;
20170;SDS011;10245;51.344;6.620;2024-03-08T04:19:41;43.70;;;26.00;;
20170;SDS011;10245;51.344;6.620;2024-03-08T04:22:05;33.92;;;23.42;;
20170;SDS011;10245;51.344;6.620;2024-03-08T04:24:28;36.20;;;25.42;;
20170;SDS011;10245;51.344;6.620;2024-03-08T04:26:52;34.35;;;24.38;;
20170;SDS011;10245;51.344;6.620;2024-03-08T04:29:16;34.10;;;23.90;;
20170;SDS011;10245;51.344;6.620;2024-03-08T04:31:39;37.75;;;26.27;;
20170;SDS011;10245;51.344;6.620;2024-03-08T04:34:02;37.28;;;25.60;;
20170;SDS011;10245;51.344;6.620;2024-03-08T04:36:27;39.72;;;24.70;;
20170;SDS011;10245;51.344;6.620;2024-03-08T04:38:51;38.15;;;24.92;;
20170;SDS011;10245;51.344;6.620;2024-03-08T04:41:14;36.22;;;25.08;;
20170;SDS011;10245;51.344;6.620;2024-03-08T04:43:39;37.78;;;24.42;;
20170;SDS011;10245;51.344;6.620;2024-03-08T04:46:02;39.35;;;25.33;;
20170;SDS011;10245;51.344;6.620;2024-03-08T04:48:27;35.15;;;24.38;;
20170;SDS011;10245;51.344;6.620;2024-03-08T04:50:50;37.70;;;25.17;;
20170;SDS011;10245;51.344;6.620;2024-03-08T04:53:15;34.97;;;23.67;;
20170;SDS011;10245;51.344;6.620;2024-03-08T04:55:39;36.72;;;23.85;;
20170;SDS011;10245;51.344;6.620;2024-03-08T04:58:02;36.40;;;25.55;;
20170;SDS011;10245;51.344;6.620;2024-03-08T05:00:27;35.90;;;24.53;;
20170;SDS011;10245;51.344;6.620;2024-03-08T05:02:50;38.15;;;25.90;;
20170;SDS011;10245;51.344;6.620;2024-03-08T05:05:15;34.55;;;24.02;;
20170;SDS011;10245;51.344;6.620;2024-03-08T05:07:38;37.28;;;26.35;;
20170;SDS011;10245;51.344;6.620;2024-03-08T05:10:03;37.63;;;25.00;;
20170;SDS011;10245;51.344;6.620;2024-03-08T05:12:28;39.72;;;26.33;;
20170;SDS011;10245;51.344;6.620;2024-03-08T05:14:51;35.45;;;25.17;;
20170;SDS011;10245;51.344;6.620;2024-03-08T05:17:15;37.40;;;26.15;;
20170;SDS011;10245;51.344;6.620;2024-03-08T05:19:40;37.95;;;25.42;;
20170;SDS011;10245;51.344;6.620;2024-03-08T05:22:04;37.97;;;25.95;;
20170;SDS011;10245;51.344;6.620;2024-03-08T05:24:27;37.47;;;25.73;;
20170;SDS011;10245;51.344;6.620;2024-03-08T05:26:53;38.00;;;24.85;;
20170;SDS011;10245;51.344;6.620;2024-03-08T05:29:16;35.53;;;25.60;;
20170;SDS011;10245;51.344;6.620;2024-03-08T05:31:43;38.78;;;25.30;;
20170;SDS011;10245;51.344;6.620;2024-03-08T05:34:10;41.92;;;27.15;;
20170;SDS011;10245;51.344;6.620;2024-03-08T05:36:36;39.47;;;26.70;;
20170;SDS011;10245;51.344;6.620;2024-03-08T05:38:59;38.28;;;25.45;;
20170;SDS011;10245;51.344;6.620;2024-03-08T05:41:22;35.53;;;25.60;;
20170;SDS011;10245;51.344;6.620;2024-03-08T05:43:47;38.50;;;27.00;;
20170;SDS011;10245;51.344;6.620;2024-03-08T05:46:11;39.70;;;25.92;;
20170;SDS011;10245;51.344;6.620;2024-03-08T05:48:39;42.47;;;27.50;;
20170;SDS011;10245;51.344;6.620;2024-03-08T05:51:03;39.75;;;26.67;;
20170;SDS011;10245;51.344;6.620;2024-03-08T05:53:26;44.08;;;27.55;;
20170;SDS011;10245;51.344;6.620;2024-03-08T05:55:52;40.03;;;27.38;;
20170;SDS011;10245;51.344;6.620;2024-03-08T05:58:16;42.45;;;27.23;;
20170;SDS011;10245;51.344;6.620;2024-03-08T06:00:41;42.30;;;27.85;;
20170;SDS011;10245;51.344;6.620;2024-03-08T06:03:10;54.13;;;32.17;;
20170;SDS011;10245;51.344;6.620;2024-03-08T06:05:34;47.17;;;31.15;;
20170;SDS011;10245;51.344;6.620;2024-03-08T06:07:57;45.47;;;28.77;;
20170;SDS011;10245;51.344;6.620;2024-03-08T06:10:20;40.58;;;27.70;;
20170;SDS011;10245;51.344;6.620;2024-03-08T06:12:44;43.47;;;29.20;;
20170;SDS011;10245;51.344;6.620;2024-03-08T06:15:09;40.33;;;26.17;;
20170;SDS011;10245;51.344;6.620;2024-03-08T06:17:37;44.35;;;28.80;;
20170;SDS011;10245;51.344;6.620;2024-03-08T06:20:01;43.30;;;28.40;;
20170;SDS011;10245;51.344;6.620;2024-03-08T06:22:25;45.03;;;28.23;;
20170;SDS011;10245;51.344;6.620;2024-03-08T06:24:49;43.93;;;28.40;;
20170;SDS011;10245;51.344;6.620;2024-03-08T06:27:12;43.17;;;27.75;;
20170;SDS011;10245;51.344;6.620;2024-03-08T06:29:36;38.92;;;26.27;;
20170;SDS011;10245;51.344;6.620;2024-03-08T06:31:59;42.45;;;27.17;;
20170;SDS011;10245;51.344;6.620;2024-03-08T06:34:24;44.43;;;27.07;;
20170;SDS011;10245;51.344;6.620;2024-03-08T06:36:47;38.23;;;26.13;;
20170;SDS011;10245;51.344;6.620;2024-03-08T06:39:10;45.83;;;29.20;;
20170;SDS011;10245;51.344;6.620;2024-03-08T06:41:33;47.97;;;29.23;;
20170;SDS011;10245;51.344;6.620;2024-03-08T06:43:58;44.17;;;29.10;;
20170;SDS011;10245;51.344;6.620;2024-03-08T06:46:21;42.80;;;27.98;;
20170;SDS011;10245;51.344;6.620;2024-03-08T06:48:46;43.25;;;27.00;;
20170;SDS011;10245;51.344;6.620;2024-03-08T06:51:13;40.25;;;28.00;;
20170;SDS011;10245;51.344;6.620;2024-03-08T06:53:37;40.87;;;27.23;;
20170;SDS011;10245;51.344;6.620;2024-03-08T06:56:00;46.53;;;28.67;;
20170;SDS011;10245;51.344;6.620;2024-03-08T06:58:24;42.07;;;27.47;;
20170;SDS011;10245;51.344;6.620;2024-03-08T07:00:48;39.70;;;26.75;;
20170;SDS011;10245;51.344;6.620;2024-03-08T07:03:13;44.67;;;27.70;;
20170;SDS011;10245;51.344;6.620;2024-03-08T07:05:38;44.33;;;28.55;;
20170;SDS011;10245;51.344;6.620;2024-03-08T07:08:04;44.28;;;28.67;;
20170;SDS011;10245;51.344;6.620;2024-03-08T07:10:28;43.43;;;27.37;;
20170;SDS011;10245;51.344;6.620;2024-03-08T07:12:51;46.27;;;29.90;;
20170;SDS011;10245;51.344;6.620;2024-03-08T07:15:15;42.55;;;28.27;;
20170;SDS011;10245;51.344;6.620;2024-03-08T07:17:41;48.13;;;28.03;;
20170;SDS011;10245;51.344;6.620;2024-03-08T07:20:07;42.17;;;27.47;;
20170;SDS011;10245;51.344;6.620;2024-03-08T07:22:33;45.83;;;28.13;;
20170;SDS011;10245;51.344;6.620;2024-03-08T07:25:01;41.27;;;27.50;;
20170;SDS011;10245;51.344;6.620;2024-03-08T07:27:42;42.13;;;28.73;;
20170;SDS011;10245;51.344;6.620;2024-03-08T07:30:05;43.15;;;28.58;;
20170;SDS011;10245;51.344;6.620;2024-03-08T07:32:31;46.13;;;27.65;;
20170;SDS011;10245;51.344;6.620;2024-03-08T07:34:56;38.90;;;25.55;;
20170;SDS011;10245;51.344;6.620;2024-03-08T07:37:19;42.53;;;25.25;;
20170;SDS011;10245;51.344;6.620;2024-03-08T07:39:43;39.85;;;25.52;;
20170;SDS011;10245;51.344;6.620;2024-03-08T07:42:08;44.13;;;28.42;;
20170;SDS011;10245;51.344;6.620;2024-03-08T07:44:33;40.55;;;25.73;;
20170;SDS011;10245;51.344;6.620;2024-03-08T07:46:56;43.08;;;27.20;;
20170;SDS011;10245;51.344;6.620;2024-03-08T07:49:20;38.00;;;24.80;;
20170;SDS011;10245;51.344;6.620;2024-03-08T07:51:43;39.80;;;26.05;;
20170;SDS011;10245;51.344;6.620;2024-03-08T07:54:06;38.47;;;25.20;;
20170;SDS011;10245;51.344;6.620;2024-03-08T07:56:30;37.88;;;24.92;;
20170;SDS011;10245;51.344;6.620;2024-03-08T07:58:55;40.65;;;27.02;;
20170;SDS011;10245;51.344;6.620;2024-03-08T08:01:18;39.22;;;24.90;;
20170;SDS011;10245;51.344;6.620;2024-03-08T08:03:42;38.03;;;25.40;;
20170;SDS011;10245;51.344;6.620;2024-03-08T08:06:06;37.38;;;25.08;;
20170;SDS011;10245;51.344;6.620;2024-03-08T08:08:31;36.40;;;25.27;;
20170;SDS011;10245;51.344;6.620;2024-03-08T08:10:54;36.78;;;24.65;;
20170;SDS011;10245;51.344;6.620;2024-03-08T08:13:18;36.45;;;24.35;;
20170;SDS011;10245;51.344;6.620;2024-03-08T08:15:43;38.72;;;24.90;;
20170;SDS011;10245;51.344;6.620;2024-03-08T08:18:07;37.30;;;24.67;;
20170;SDS011;10245;51.344;6.620;2024-03-08T08:20:31;37.47;;;24.50;;
20170;SDS011;10245;51.344;6.620;2024-03-08T08:22:54;35.40;;;23.35;;
20170;SDS011;10245;51.344;6.620;2024-03-08T08:25:17;35.05;;;24.00;;
20170;SDS011;10245;51.344;6.620;2024-03-08T08:27:42;37.80;;;23.92;;
20170;SDS011;10245;51.344;6.620;2024-03-08T08:30:06;37.75;;;23.23;;
20170;SDS011;10245;51.344;6.620;2024-03-08T08:32:32;35.08;;;22.98;;
20170;SDS011;10245;51.344;6.620;2024-03-08T08:34:55;33.67;;;23.33;;
20170;SDS011;10245;51.344;6.620;2024-03-08T08:37:21;35.05;;;23.73;;
20170;SDS011;10245;51.344;6.620;2024-03-08T08:39:46;33.60;;;22.20;;
20170;SDS011;10245;51.344;6.620;2024-03-08T08:42:12;35.38;;;23.25;;
20170;SDS011;10245;51.344;6.620;2024-03-08T08:44:36;33.38;;;22.45;;
20170;SDS011;10245;51.344;6.620;2024-03-08T08:46:59;35.47;;;23.60;;
20170;SDS011;10245;51.344;6.620;2024-03-08T08:49:34;35.28;;;23.17;;
20170;SDS011;10245;51.344;6.620;2024-03-08T08:51:57;34.55;;;22.02;;
20170;SDS011;10245;51.344;6.620;2024-03-08T08:54:33;34.15;;;21.58;;
20170;SDS011;10245;51.344;6.620;2024-03-08T08:56:57;34.45;;;22.27;;
20170;SDS011;10245;51.344;6.620;2024-03-08T08:59:20;27.85;;;18.60;;
20170;SDS011;10245;51.344;6.620;2024-03-08T09:01:46;28.25;;;19.50;;
20170;SDS011;10245;51.344;6.620;2024-03-08T09:04:09;26.45;;;18.55;;
20170;SDS011;10245;51.344;6.620;2024-03-08T09:06:36;28.55;;;18.67;;
20170;SDS011;10245;51.344;6.620;2024-03-08T09:08:59;31.77;;;17.60;;
20170;SDS011;10245;51.344;6.620;2024-03-08T09:11:26;27.95;;;18.48;;
20170;SDS011;10245;51.344;6.620;2024-03-08T09:13:51;31.17;;;18.05;;
20170;SDS011;10245;51.344;6.620;2024-03-08T09:16:14;27.13;;;17.70;;
20170;SDS011;10245;51.344;6.620;2024-03-08T09:18:38;24.60;;;16.58;;
20170;SDS011;10245;51.344;6.620;2024-03-08T09:21:03;23.02;;;15.77;;
20170;SDS011;10245;51.344;6.620;2024-03-08T09:23:32;25.35;;;17.35;;
20170;SDS011;10245;51.344;6.620;2024-03-08T09:25:57;23.30;;;16.35;;
20170;SDS011;10245;51.344;6.620;2024-03-08T09:28:20;25.67;;;16.35;;
20170;SDS011;10245;51.344;6.620;2024-03-08T09:30:43;22.02;;;15.15;;
20170;SDS011;10245;51.344;6.620;2024-03-08T09:33:20;23.08;;;15.63;;
20170;SDS011;10245;51.344;6.620;2024-03-08T09:35:43;23.60;;;15.98;;
20170;SDS011;10245;51.344;6.620;2024-03-08T09:38:08;22.45;;;15.68;;
20170;SDS011;10245;51.344;6.620;2024-03-08T09:40:35;20.05;;;15.02;;
20170;SDS011;10245;51.344;6.620;2024-03-08T09:42:59;21.58;;;15.73;;
20170;SDS011;10245;51.344;6.620;2024-03-08T09:45:22;21.45;;;15.45;;
20170;SDS011;10245;51.344;6.620;2024-03-08T09:47:47;21.77;;;14.88;;
20170;SDS011;10245;51.344;6.620;2024-03-08T09:50:11;21.73;;;14.90;;
20170;SDS011;10245;51.344;6.620;2024-03-08T09:52:35;18.77;;;14.63;;
20170;SDS011;10245;51.344;6.620;2024-03-08T09:54:59;18.98;;;14.57;;
20170;SDS011;10245;51.344;6.620;2024-03-08T09:57:24;21.73;;;15.57;;
20170;SDS011;10245;51.344;6.620;2024-03-08T09:59:48;23.70;;;15.68;;
20170;SDS011;10245;51.344;6.620;2024-03-08T10:02:13;21.50;;;15.02;;
20170;SDS011;10245;51.344;6.620;2024-03-08T10:04:39;22.55;;;15.13;;
20170;SDS011;10245;51.344;6.620;2024-03-08T10:07:03;20.95;;;15.15;;
20170;SDS011;10245;51.344;6.620;2024-03-08T10:09:28;21.80;;;14.95;;
20170;SDS011;10245;51.344;6.620;2024-03-08T10:11:53;23.70;;;14.98;;
20170;SDS011;10245;51.344;6.620;2024-03-08T10:14:18;22.73;;;15.02;;
20170;SDS011;10245;51.344;6.620;2024-03-08T10:16:41;18.25;;;13.80;;
20170;SDS011;10245;51.344;6.620;2024-03-08T10:19:05;17.52;;;13.82;;
20170;SDS011;10245;51.344;6.620;2024-03-08T10:21:31;20.08;;;14.32;;
20170;SDS011;10245;51.344;6.620;2024-03-08T10:23:55;18.25;;;13.48;;
20170;SDS011;10245;51.344;6.620;2024-03-08T10:26:20;17.55;;;13.93;;
20170;SDS011;10245;51.344;6.620;2024-03-08T10:28:44;20.75;;;13.75;;
20170;SDS011;10245;51.344;6.620;2024-03-08T10:31:11;17.58;;;13.15;;
20170;SDS011;10245;51.344;6.620;2024-03-08T10:33:39;17.65;;;13.40;;
20170;SDS011;10245;51.344;6.620;2024-03-08T10:36:02;21.67;;;13.23;;
20170;SDS011;10245;51.344;6.620;2024-03-08T10:38:29;18.45;;;12.65;;
20170;SDS011;10245;51.344;6.620;2024-03-08T10:40:55;17.00;;;12.93;;
20170;SDS011;10245;51.344;6.620;2024-03-08T10:43:22;17.40;;;11.98;;
20170;SDS011;10245;51.344;6.620;2024-03-08T10:45:50;19.45;;;12.95;;
20170;SDS011;10245;51.344;6.620;2024-03-08T10:48:26;17.85;;;11.80;;
20170;SDS011;10245;51.344;6.620;2024-03-08T10:50:59;15.77;;;12.20;;
20170;SDS011;10245;51.344;6.620;2024-03-08T10:53:26;20.75;;;12.85;;
20170;SDS011;10245;51.344;6.620;2024-03-08T10:55:51;18.77;;;12.52;;
20170;SDS011;10245;51.344;6.620;2024-03-08T10:58:16;17.67;;;12.02;;
20170;SDS011;10245;51.344;6.620;2024-03-08T11:00:41;16.70;;;11.93;;
20170;SDS011;10245;51.344;6.620;2024-03-08T11:03:05;19.25;;;11.13;;
20170;SDS011;10245;51.344;6.620;2024-03-08T11:05:36;14.43;;;10.30;;
20170;SDS011;10245;51.344;6.620;2024-03-08T11:08:06;19.15;;;10.80;;
20170;SDS011;10245;51.344;6.620;2024-03-08T11:10:47;12.30;;;9.90;;
20170;SDS011;10245;51.344;6.620;2024-03-08T11:15:58;12.73;;;10.20;;
20170;SDS011;10245;51.344;6.620;2024-03-08T11:18:22;14.93;;;9.48;;
20170;SDS011;10245;51.344;6.620;2024-03-08T11:20:48;15.25;;;10.00;;
20170;SDS011;10245;51.344;6.620;2024-03-08T11:23:11;13.73;;;10.60;;
20170;SDS011;10245;51.344;6.620;2024-03-08T11:25:35;14.52;;;10.65;;
20170;SDS011;10245;51.344;6.620;2024-03-08T11:28:10;12.95;;;10.50;;
20170;SDS011;10245;51.344;6.620;2024-03-08T11:30:40;14.55;;;10.80;;
20170;SDS011;10245;51.344;6.620;2024-03-08T11:33:03;13.55;;;10.20;;
20170;SDS011;10245;51.344;6.620;2024-03-08T11:35:26;13.27;;;9.57;;
20170;SDS011;10245;51.344;6.620;2024-03-08T11:37:52;14.73;;;10.40;;
20170;SDS011;10245;51.344;6.620;2024-03-08T11:40:15;14.77;;;10.25;;
20170;SDS011;10245;51.344;6.620;2024-03-08T11:42:43;14.70;;;10.05;;
20170;SDS011;10245;51.344;6.620;2024-03-08T11:45:09;20.80;;;10.88;;
20170;SDS011;10245;51.344;6.620;2024-03-08T11:47:34;15.80;;;10.00;;
20170;SDS011;10245;51.344;6.620;2024-03-08T11:50:01;13.07;;;9.25;;
20170;SDS011;10245;51.344;6.620;2024-03-08T11:52:24;14.60;;;10.75;;
20170;SDS011;10245;51.344;6.620;2024-03-08T11:54:51;13.80;;;9.88;;
20170;SDS011;10245;51.344;6.620;2024-03-08T11:57:19;14.27;;;9.98;;
20170;SDS011;10245;51.344;6.620;2024-03-08T11:59:49;14.15;;;10.23;;
20170;SDS011;10245;51.344;6.620;2024-03-08T12:02:17;14.00;;;10.15;;
20170;SDS011;10245;51.344;6.620;2024-03-08T12:04:41;13.45;;;10.00;;
20170;SDS011;10245;51.344;6.620;2024-03-08T12:07:09;12.45;;;9.93;;
20170;SDS011;10245;51.344;6.620;2024-03-08T12:09:33;12.45;;;10.18;;
20170;SDS011;10245;51.344;6.620;2024-03-08T12:11:59;14.15;;;10.32;;
20170;SDS011;10245;51.344;6.620;2024-03-08T12:14:23;13.93;;;9.02;;
20170;SDS011;10245;51.344;6.620;2024-03-08T12:16:46;13.00;;;9.90;;
20170;SDS011;10245;51.344;6.620;2024-03-08T12:19:11;14.13;;;10.23;;
20170;SDS011;10245;51.344;6.620;2024-03-08T12:21:34;13.70;;;9.35;;
20170;SDS011;10245;51.344;6.620;2024-03-08T12:24:02;14.02;;;10.15;;
20170;SDS011;10245;51.344;6.620;2024-03-08T12:26:30;13.13;;;10.20;;
20170;SDS011;10245;51.344;6.620;2024-03-08T12:29:13;14.50;;;10.80;;
20170;SDS011;10245;51.344;6.620;2024-03-08T12:31:39;12.60;;;10.25;;
20170;SDS011;10245;51.344;6.620;2024-03-08T12:34:04;13.30;;;10.25;;
20170;SDS011;10245;51.344;6.620;2024-03-08T12:36:27;16.70;;;10.90;;
20170;SDS011;10245;51.344;6.620;2024-03-08T12:38:51;14.45;;;9.93;;
20170;SDS011;10245;51.344;6.620;2024-03-08T12:41:17;12.68;;;9.85;;
20170;SDS011;10245;51.344;6.620;2024-03-08T12:43:42;16.20;;;10.43;;
20170;SDS011;10245;51.344;6.620;2024-03-08T12:46:11;14.43;;;10.60;;
20170;SDS011;10245;51.344;6.620;2024-03-08T12:48:35;12.82;;;10.13;;
20170;SDS011;10245;51.344;6.620;2024-03-08T12:51:01;12.93;;;9.98;;
20170;SDS011;10245;51.344;6.620;2024-03-08T12:53:27;13.90;;;10.35;;
20170;SDS011;10245;51.344;6.620;2024-03-08T12:55:51;13.05;;;9.57;;
20170;SDS011;10245;51.344;6.620;2024-03-08T12:58:14;12.52;;;10.10;;
20170;SDS011;10245;51.344;6.620;2024-03-08T13:00:39;12.93;;;9.10;;
20170;SDS011;10245;51.344;6.620;2024-03-08T13:03:06;13.15;;;10.50;;
20170;SDS011;10245;51.344;6.620;2024-03-08T13:05:31;14.00;;;10.60;;
20170;SDS011;10245;51.344;6.620;2024-03-08T13:07:54;12.38;;;10.27;;
20170;SDS011;10245;51.344;6.620;2024-03-08T13:10:18;13.18;;;10.18;;
20170;SDS011;10245;51.344;6.620;2024-03-08T13:12:43;13.60;;;10.38;;
20170;SDS011;10245;51.344;6.620;2024-03-08T13:15:06;14.68;;;9.70;;
20170;SDS011;10245;51.344;6.620;2024-03-08T13:17:32;11.88;;;9.70;;
20170;SDS011;10245;51.344;6.620;2024-03-08T13:19:57;15.55;;;9.98;;
20170;SDS011;10245;51.344;6.620;2024-03-08T13:22:21;11.80;;;9.23;;
20170;SDS011;10245;51.344;6.620;2024-03-08T13:24:46;13.18;;;9.25;;
20170;SDS011;10245;51.344;6.620;2024-03-08T13:27:13;12.70;;;9.98;;
20170;SDS011;10245;51.344;6.620;2024-03-08T13:29:43;11.35;;;9.38;;
20170;SDS011;10245;51.344;6.620;2024-03-08T13:32:06;13.65;;;10.15;;
20170;SDS011;10245;51.344;6.620;2024-03-08T13:34:33;11.18;;;9.27;;
20170;SDS011;10245;51.344;6.620;2024-03-08T13:36:58;12.25;;;9.55;;
20170;SDS011;10245;51.344;6.620;2024-03-08T13:39:22;12.15;;;9.68;;
20170;SDS011;10245;51.344;6.620;2024-03-08T13:41:47;14.55;;;10.20;;
20170;SDS011;10245;51.344;6.620;2024-03-08T13:44:10;12.05;;;9.40;;
20170;SDS011;10245;51.344;6.620;2024-03-08T13:46:34;12.65;;;9.32;;
20170;SDS011;10245;51.344;6.620;2024-03-08T13:49:02;14.00;;;9.75;;
20170;SDS011;10245;51.344;6.620;2024-03-08T13:51:29;13.57;;;9.90;;
20170;SDS011;10245;51.344;6.620;2024-03-08T13:53:56;12.15;;;9.45;;
20170;SDS011;10245;51.344;6.620;2024-03-08T13:56:19;17.08;;;11.70;;
20170;SDS011;10245;51.344;6.620;2024-03-08T13:58:43;12.77;;;9.90;;
20170;SDS011;10245;51.344;6.620;2024-03-08T14:01:06;22.25;;;15.57;;
20170;SDS011;10245;51.344;6.620;2024-03-08T14:03:34;14.75;;;10.23;;
20170;SDS011;10245;51.344;6.620;2024-03-08T14:05:57;14.85;;;11.20;;
20170;SDS011;10245;51.344;6.620;2024-03-08T14:08:21;12.65;;;9.25;;
20170;SDS011;10245;51.344;6.620;2024-03-08T14:10:47;12.40;;;9.23;;
20170;SDS011;10245;51.344;6.620;2024-03-08T14:13:12;12.82;;;9.35;;